sensor_id;sensor_type;location;lat;lon;timestamp;P1;durP1;ratioP1;P2;durP2;ratioP2
54123;SDS011;55741;53.252;5.788;2023-09-19T00:00:33;24.55;;;4.32;;
54123;SDS011;55741;53.252;5.788;2023-09-19T00:03:01;14.10;;;3.72;;
54123;SDS011;55741;53.252;5.788;2023-09-19T00:05:27;13.98;;;3.45;;
54123;SDS011;55741;53.252;5.788;2023-09-19T00:07:55;20.70;;;3.97;;
54123;SDS011;55741;53.252;5.788;2023-09-19T00:10:24;18.65;;;3.15;;
54123;SDS011;55741;53.252;5.788;2023-09-19T00:12:52;18.63;;;3.70;;
54123;SDS011;55741;53.252;5.788;2023-09-19T00:15:24;13.10;;;3.15;;
54123;SDS011;55741;53.252;5.788;2023-09-19T00:17:56;16.33;;;3.35;;
54123;SDS011;55741;53.252;5.788;2023-09-19T00:20:22;14.40;;;3.28;;
54123;SDS011;55741;53.252;5.788;2023-09-19T00:22:50;17.98;;;3.58;;
54123;SDS011;55741;53.252;5.788;2023-09-19T00:25:19;14.05;;;3.10;;
54123;SDS011;55741;53.252;5.788;2023-09-19T00:27:45;18.58;;;4.65;;
54123;SDS011;55741;53.252;5.788;2023-09-19T00:30:15;13.48;;;3.20;;
54123;SDS011;55741;53.252;5.788;2023-09-19T00:33:04;20.70;;;3.67;;
54123;SDS011;55741;53.252;5.788;2023-09-19T00:35:34;13.43;;;2.78;;
54123;SDS011;55741;53.252;5.788;2023-09-19T00:38:01;13.20;;;3.13;;
54123;SDS011;55741;53.252;5.788;2023-09-19T00:40:28;14.05;;;3.70;;
54123;SDS011;55741;53.252;5.788;2023-09-19T00:42:57;11.10;;;2.72;;
54123;SDS011;55741;53.252;5.788;2023-09-19T00:45:26;15.02;;;2.85;;
54123;SDS011;55741;53.252;5.788;2023-09-19T00:47:53;10.93;;;2.80;;
54123;SDS011;55741;53.252;5.788;2023-09-19T00:50:21;18.58;;;3.45;;
54123;SDS011;55741;53.252;5.788;2023-09-19T00:52:48;13.77;;;3.83;;
54123;SDS011;55741;53.252;5.788;2023-09-19T00:55:16;11.77;;;2.70;;
54123;SDS011;55741;53.252;5.788;2023-09-19T00:57:45;15.02;;;3.33;;
54123;SDS011;55741;53.252;5.788;2023-09-19T01:00:12;14.68;;;2.72;;
54123;SDS011;55741;53.252;5.788;2023-09-19T01:02:41;13.23;;;2.67;;
54123;SDS011;55741;53.252;5.788;2023-09-19T01:05:08;10.68;;;3.08;;
54123;SDS011;55741;53.252;5.788;2023-09-19T01:07:35;10.18;;;2.97;;
54123;SDS011;55741;53.252;5.788;2023-09-19T01:10:05;10.07;;;3.28;;
54123;SDS011;55741;53.252;5.788;2023-09-19T01:12:52;11.10;;;3.40;;
54123;SDS011;55741;53.252;5.788;2023-09-19T01:23:48;13.73;;;2.90;;
54123;SDS011;55741;53.252;5.788;2023-09-19T01:32:04;12.82;;;2.90;;
54123;SDS011;55741;53.252;5.788;2023-09-19T01:34:47;13.52;;;3.60;;
54123;SDS011;55741;53.252;5.788;2023-09-19T01:37:20;13.02;;;3.50;;
54123;SDS011;55741;53.252;5.788;2023-09-19T01:45:07;17.85;;;4.03;;
54123;SDS011;55741;53.252;5.788;2023-09-19T01:50:17;11.25;;;2.85;;
54123;SDS011;55741;53.252;5.788;2023-09-19T01:53:19;13.52;;;3.45;;
54123;SDS011;55741;53.252;5.788;2023-09-19T01:56:12;10.13;;;3.00;;
54123;SDS011;55741;53.252;5.788;2023-09-19T01:59:08;18.15;;;3.05;;
54123;SDS011;55741;53.252;5.788;2023-09-19T02:01:38;14.70;;;3.65;;
54123;SDS011;55741;53.252;5.788;2023-09-19T02:04:05;13.25;;;2.85;;
54123;SDS011;55741;53.252;5.788;2023-09-19T02:06:32;9.07;;;2.35;;
54123;SDS011;55741;53.252;5.788;2023-09-19T02:09:01;9.65;;;2.65;;
54123;SDS011;55741;53.252;5.788;2023-09-19T02:11:49;14.15;;;3.63;;
54123;SDS011;55741;53.252;5.788;2023-09-19T02:14:14;12.93;;;2.67;;
54123;SDS011;55741;53.252;5.788;2023-09-19T02:16:40;9.35;;;2.60;;
54123;SDS011;55741;53.252;5.788;2023-09-19T02:19:07;14.30;;;2.88;;
54123;SDS011;55741;53.252;5.788;2023-09-19T02:21:33;11.77;;;2.80;;
54123;SDS011;55741;53.252;5.788;2023-09-19T02:23:58;11.10;;;3.22;;
54123;SDS011;55741;53.252;5.788;2023-09-19T02:26:24;11.27;;;2.83;;
54123;SDS011;55741;53.252;5.788;2023-09-19T02:28:50;14.10;;;3.63;;
54123;SDS011;55741;53.252;5.788;2023-09-19T02:31:36;12.32;;;2.95;;
54123;SDS011;55741;53.252;5.788;2023-09-19T02:34:02;12.15;;;2.97;;
54123;SDS011;55741;53.252;5.788;2023-09-19T02:36:28;14.55;;;3.20;;
54123;SDS011;55741;53.252;5.788;2023-09-19T02:38:57;13.02;;;3.40;;
54123;SDS011;55741;53.252;5.788;2023-09-19T02:41:23;12.85;;;3.38;;
54123;SDS011;55741;53.252;5.788;2023-09-19T02:43:49;15.32;;;3.42;;
54123;SDS011;55741;53.252;5.788;2023-09-19T02:46:15;11.10;;;3.70;;
54123;SDS011;55741;53.252;5.788;2023-09-19T02:48:42;10.00;;;2.90;;
54123;SDS011;55741;53.252;5.788;2023-09-19T02:51:07;13.68;;;2.95;;
54123;SDS011;55741;53.252;5.788;2023-09-19T02:53:33;17.20;;;4.05;;
54123;SDS011;55741;53.252;5.788;2023-09-19T02:55:59;11.63;;;3.28;;
54123;SDS011;55741;53.252;5.788;2023-09-19T02:58:26;13.02;;;2.90;;
54123;SDS011;55741;53.252;5.788;2023-09-19T03:00:53;15.10;;;3.33;;
54123;SDS011;55741;53.252;5.788;2023-09-19T03:03:19;9.27;;;2.35;;
54123;SDS011;55741;53.252;5.788;2023-09-19T03:05:44;13.27;;;2.72;;
54123;SDS011;55741;53.252;5.788;2023-09-19T03:08:14;8.98;;;2.22;;
54123;SDS011;55741;53.252;5.788;2023-09-19T03:10:45;14.23;;;3.10;;
54123;SDS011;55741;53.252;5.788;2023-09-19T03:13:11;10.15;;;2.63;;
54123;SDS011;55741;53.252;5.788;2023-09-19T03:15:40;10.85;;;2.83;;
54123;SDS011;55741;53.252;5.788;2023-09-19T03:18:09;10.73;;;2.85;;
54123;SDS011;55741;53.252;5.788;2023-09-19T03:20:35;15.82;;;3.25;;
54123;SDS011;55741;53.252;5.788;2023-09-19T03:23:01;11.00;;;2.88;;
54123;SDS011;55741;53.252;5.788;2023-09-19T03:25:27;10.05;;;2.75;;
54123;SDS011;55741;53.252;5.788;2023-09-19T03:27:55;10.38;;;3.08;;
54123;SDS011;55741;53.252;5.788;2023-09-19T03:30:23;9.73;;;2.60;;
54123;SDS011;55741;53.252;5.788;2023-09-19T03:32:49;10.25;;;2.42;;
54123;SDS011;55741;53.252;5.788;2023-09-19T03:35:15;11.05;;;3.00;;
54123;SDS011;55741;53.252;5.788;2023-09-19T03:37:42;10.20;;;2.80;;
54123;SDS011;55741;53.252;5.788;2023-09-19T03:40:10;10.40;;;2.72;;
54123;SDS011;55741;53.252;5.788;2023-09-19T03:42:40;13.00;;;3.05;;
54123;SDS011;55741;53.252;5.788;2023-09-19T03:45:07;13.02;;;3.40;;
54123;SDS011;55741;53.252;5.788;2023-09-19T03:47:37;18.58;;;3.78;;
54123;SDS011;55741;53.252;5.788;2023-09-19T03:50:04;15.25;;;2.97;;
54123;SDS011;55741;53.252;5.788;2023-09-19T03:52:31;15.68;;;4.57;;
54123;SDS011;55741;53.252;5.788;2023-09-19T03:54:56;13.73;;;3.20;;
54123;SDS011;55741;53.252;5.788;2023-09-19T03:57:22;16.52;;;3.30;;
54123;SDS011;55741;53.252;5.788;2023-09-19T03:59:48;14.52;;;2.88;;
54123;SDS011;55741;53.252;5.788;2023-09-19T04:02:14;12.20;;;2.90;;
54123;SDS011;55741;53.252;5.788;2023-09-19T04:04:50;10.80;;;3.00;;
54123;SDS011;55741;53.252;5.788;2023-09-19T04:07:17;10.23;;;2.70;;
54123;SDS011;55741;53.252;5.788;2023-09-19T04:09:47;17.23;;;3.22;;
54123;SDS011;55741;53.252;5.788;2023-09-19T04:12:14;13.40;;;2.97;;
54123;SDS011;55741;53.252;5.788;2023-09-19T04:14:42;10.75;;;2.42;;
54123;SDS011;55741;53.252;5.788;2023-09-19T04:17:08;13.93;;;3.25;;
54123;SDS011;55741;53.252;5.788;2023-09-19T04:19:35;12.75;;;2.75;;
54123;SDS011;55741;53.252;5.788;2023-09-19T04:22:01;10.30;;;2.70;;
54123;SDS011;55741;53.252;5.788;2023-09-19T04:24:28;11.30;;;2.60;;
54123;SDS011;55741;53.252;5.788;2023-09-19T04:26:53;12.45;;;2.55;;
54123;SDS011;55741;53.252;5.788;2023-09-19T04:29:19;14.30;;;3.35;;
54123;SDS011;55741;53.252;5.788;2023-09-19T04:31:45;10.43;;;2.90;;
54123;SDS011;55741;53.252;5.788;2023-09-19T04:34:11;8.98;;;2.60;;
54123;SDS011;55741;53.252;5.788;2023-09-19T04:36:41;13.70;;;2.67;;
54123;SDS011;55741;53.252;5.788;2023-09-19T04:39:07;11.13;;;3.17;;
54123;SDS011;55741;53.252;5.788;2023-09-19T04:41:34;9.25;;;2.58;;
54123;SDS011;55741;53.252;5.788;2023-09-19T04:44:02;9.23;;;2.55;;
54123;SDS011;55741;53.252;5.788;2023-09-19T04:46:28;15.27;;;3.38;;
54123;SDS011;55741;53.252;5.788;2023-09-19T04:48:54;20.42;;;3.38;;
54123;SDS011;55741;53.252;5.788;2023-09-19T04:51:20;13.73;;;2.85;;
54123;SDS011;55741;53.252;5.788;2023-09-19T04:53:46;12.10;;;2.85;;
54123;SDS011;55741;53.252;5.788;2023-09-19T04:56:13;11.57;;;2.95;;
54123;SDS011;55741;53.252;5.788;2023-09-19T04:58:39;12.20;;;3.20;;
54123;SDS011;55741;53.252;5.788;2023-09-19T05:01:04;10.10;;;3.13;;
54123;SDS011;55741;53.252;5.788;2023-09-19T05:03:30;10.15;;;2.65;;
54123;SDS011;55741;53.252;5.788;2023-09-19T05:05:56;13.45;;;3.25;;
54123;SDS011;55741;53.252;5.788;2023-09-19T05:08:23;16.00;;;3.60;;
54123;SDS011;55741;53.252;5.788;2023-09-19T05:10:49;15.35;;;3.28;;
54123;SDS011;55741;53.252;5.788;2023-09-19T05:13:15;18.75;;;3.80;;
54123;SDS011;55741;53.252;5.788;2023-09-19T05:15:41;14.88;;;3.88;;
54123;SDS011;55741;53.252;5.788;2023-09-19T05:18:07;13.18;;;3.08;;
54123;SDS011;55741;53.252;5.788;2023-09-19T05:20:32;16.35;;;3.63;;
54123;SDS011;55741;53.252;5.788;2023-09-19T05:23:01;13.95;;;3.00;;
54123;SDS011;55741;53.252;5.788;2023-09-19T05:25:33;19.92;;;3.78;;
54123;SDS011;55741;53.252;5.788;2023-09-19T05:28:07;10.20;;;2.63;;
54123;SDS011;55741;53.252;5.788;2023-09-19T05:30:35;15.25;;;3.30;;
54123;SDS011;55741;53.252;5.788;2023-09-19T05:33:03;9.93;;;3.03;;
54123;SDS011;55741;53.252;5.788;2023-09-19T05:35:30;19.83;;;4.65;;
54123;SDS011;55741;53.252;5.788;2023-09-19T05:37:57;12.65;;;3.85;;
54123;SDS011;55741;53.252;5.788;2023-09-19T05:40:23;14.68;;;2.95;;
54123;SDS011;55741;53.252;5.788;2023-09-19T05:42:51;12.07;;;3.00;;
54123;SDS011;55741;53.252;5.788;2023-09-19T05:45:17;14.88;;;3.30;;
54123;SDS011;55741;53.252;5.788;2023-09-19T05:47:49;7.95;;;2.97;;
54123;SDS011;55741;53.252;5.788;2023-09-19T05:50:16;10.77;;;2.63;;
54123;SDS011;55741;53.252;5.788;2023-09-19T05:52:43;13.57;;;3.13;;
54123;SDS011;55741;53.252;5.788;2023-09-19T05:55:17;14.43;;;3.30;;
54123;SDS011;55741;53.252;5.788;2023-09-19T05:57:43;12.02;;;2.88;;
54123;SDS011;55741;53.252;5.788;2023-09-19T06:00:15;16.13;;;3.22;;
54123;SDS011;55741;53.252;5.788;2023-09-19T06:02:43;12.35;;;3.05;;
54123;SDS011;55741;53.252;5.788;2023-09-19T06:05:10;12.23;;;2.97;;
54123;SDS011;55741;53.252;5.788;2023-09-19T06:10:25;11.65;;;2.72;;
54123;SDS011;55741;53.252;5.788;2023-09-19T06:12:53;20.58;;;3.53;;
54123;SDS011;55741;53.252;5.788;2023-09-19T06:15:40;13.05;;;3.10;;
54123;SDS011;55741;53.252;5.788;2023-09-19T06:18:09;13.95;;;3.50;;
54123;SDS011;55741;53.252;5.788;2023-09-19T06:20:40;15.65;;;3.13;;
54123;SDS011;55741;53.252;5.788;2023-09-19T06:23:09;15.90;;;4.20;;
54123;SDS011;55741;53.252;5.788;2023-09-19T06:25:35;11.48;;;3.08;;
54123;SDS011;55741;53.252;5.788;2023-09-19T06:28:01;15.90;;;3.40;;
54123;SDS011;55741;53.252;5.788;2023-09-19T06:30:30;16.10;;;3.20;;
54123;SDS011;55741;53.252;5.788;2023-09-19T06:32:58;11.50;;;3.00;;
54123;SDS011;55741;53.252;5.788;2023-09-19T06:35:24;18.33;;;3.38;;
54123;SDS011;55741;53.252;5.788;2023-09-19T06:37:54;12.82;;;3.03;;
54123;SDS011;55741;53.252;5.788;2023-09-19T06:40:23;15.75;;;3.65;;
54123;SDS011;55741;53.252;5.788;2023-09-19T06:42:52;15.82;;;4.20;;
54123;SDS011;55741;53.252;5.788;2023-09-19T06:45:20;10.73;;;2.60;;
54123;SDS011;55741;53.252;5.788;2023-09-19T06:47:48;14.48;;;3.72;;
54123;SDS011;55741;53.252;5.788;2023-09-19T06:50:15;10.43;;;2.80;;
54123;SDS011;55741;53.252;5.788;2023-09-19T06:52:44;14.82;;;3.63;;
54123;SDS011;55741;53.252;5.788;2023-09-19T06:55:11;12.40;;;3.65;;
54123;SDS011;55741;53.252;5.788;2023-09-19T06:57:38;14.45;;;3.50;;
54123;SDS011;55741;53.252;5.788;2023-09-19T07:00:08;14.25;;;3.13;;
54123;SDS011;55741;53.252;5.788;2023-09-19T07:02:43;13.02;;;3.10;;
54123;SDS011;55741;53.252;5.788;2023-09-19T07:05:31;15.40;;;3.72;;
54123;SDS011;55741;53.252;5.788;2023-09-19T07:07:58;10.27;;;3.03;;
54123;SDS011;55741;53.252;5.788;2023-09-19T07:10:24;12.90;;;3.22;;
54123;SDS011;55741;53.252;5.788;2023-09-19T07:13:04;17.80;;;4.55;;
54123;SDS011;55741;53.252;5.788;2023-09-19T07:15:34;12.63;;;3.67;;
54123;SDS011;55741;53.252;5.788;2023-09-19T07:18:05;15.52;;;3.83;;
54123;SDS011;55741;53.252;5.788;2023-09-19T07:20:31;10.60;;;3.70;;
54123;SDS011;55741;53.252;5.788;2023-09-19T07:22:58;15.80;;;3.85;;
54123;SDS011;55741;53.252;5.788;2023-09-19T07:25:27;12.75;;;3.08;;
54123;SDS011;55741;53.252;5.788;2023-09-19T07:27:56;10.73;;;2.60;;
54123;SDS011;55741;53.252;5.788;2023-09-19T07:30:26;15.52;;;3.80;;
54123;SDS011;55741;53.252;5.788;2023-09-19T07:32:53;13.77;;;3.33;;
54123;SDS011;55741;53.252;5.788;2023-09-19T07:35:18;14.38;;;3.40;;
54123;SDS011;55741;53.252;5.788;2023-09-19T07:37:48;16.23;;;3.72;;
54123;SDS011;55741;53.252;5.788;2023-09-19T07:40:35;12.65;;;3.53;;
54123;SDS011;55741;53.252;5.788;2023-09-19T07:43:01;13.65;;;3.28;;
54123;SDS011;55741;53.252;5.788;2023-09-19T07:45:31;14.45;;;3.25;;
54123;SDS011;55741;53.252;5.788;2023-09-19T07:47:57;21.08;;;4.38;;
54123;SDS011;55741;53.252;5.788;2023-09-19T07:50:23;16.75;;;4.13;;
54123;SDS011;55741;53.252;5.788;2023-09-19T07:52:49;16.40;;;3.63;;
54123;SDS011;55741;53.252;5.788;2023-09-19T07:55:19;16.15;;;4.28;;
54123;SDS011;55741;53.252;5.788;2023-09-19T07:57:48;14.48;;;3.30;;
54123;SDS011;55741;53.252;5.788;2023-09-19T08:00:15;15.63;;;3.95;;
54123;SDS011;55741;53.252;5.788;2023-09-19T08:02:41;14.02;;;3.53;;
54123;SDS011;55741;53.252;5.788;2023-09-19T08:05:12;15.75;;;4.07;;
54123;SDS011;55741;53.252;5.788;2023-09-19T08:07:41;10.70;;;3.22;;
54123;SDS011;55741;53.252;5.788;2023-09-19T08:10:09;16.50;;;3.10;;
54123;SDS011;55741;53.252;5.788;2023-09-19T08:12:39;13.93;;;2.63;;
54123;SDS011;55741;53.252;5.788;2023-09-19T08:15:21;18.83;;;3.53;;
54123;SDS011;55741;53.252;5.788;2023-09-19T08:17:47;16.38;;;4.90;;
54123;SDS011;55741;53.252;5.788;2023-09-19T08:20:13;11.18;;;3.20;;
54123;SDS011;55741;53.252;5.788;2023-09-19T08:22:46;17.05;;;4.50;;
54123;SDS011;55741;53.252;5.788;2023-09-19T08:25:24;17.98;;;4.05;;
54123;SDS011;55741;53.252;5.788;2023-09-19T08:27:50;15.80;;;3.67;;
54123;SDS011;55741;53.252;5.788;2023-09-19T08:30:17;12.60;;;3.20;;
54123;SDS011;55741;53.252;5.788;2023-09-19T08:32:49;16.55;;;3.55;;
54123;SDS011;55741;53.252;5.788;2023-09-19T08:35:15;16.13;;;4.70;;
54123;SDS011;55741;53.252;5.788;2023-09-19T08:37:44;13.25;;;3.95;;
54123;SDS011;55741;53.252;5.788;2023-09-19T08:40:11;15.63;;;3.85;;
54123;SDS011;55741;53.252;5.788;2023-09-19T08:42:59;13.50;;;3.38;;
54123;SDS011;55741;53.252;5.788;2023-09-19T08:45:26;12.32;;;3.85;;
54123;SDS011;55741;53.252;5.788;2023-09-19T08:50:52;18.20;;;3.88;;
54123;SDS011;55741;53.252;5.788;2023-09-19T08:53:42;18.60;;;4.15;;
54123;SDS011;55741;53.252;5.788;2023-09-19T08:56:17;12.77;;;3.53;;
54123;SDS011;55741;53.252;5.788;2023-09-19T08:58:46;11.77;;;3.17;;
54123;SDS011;55741;53.252;5.788;2023-09-19T09:01:18;17.67;;;3.90;;
54123;SDS011;55741;53.252;5.788;2023-09-19T09:03:53;11.25;;;3.50;;
54123;SDS011;55741;53.252;5.788;2023-09-19T09:06:20;13.70;;;3.38;;
54123;SDS011;55741;53.252;5.788;2023-09-19T09:08:46;13.73;;;3.72;;
54123;SDS011;55741;53.252;5.788;2023-09-19T09:11:13;16.58;;;4.20;;
54123;SDS011;55741;53.252;5.788;2023-09-19T09:13:42;16.67;;;4.00;;
54123;SDS011;55741;53.252;5.788;2023-09-19T09:16:11;11.65;;;3.92;;
54123;SDS011;55741;53.252;5.788;2023-09-19T09:18:38;14.15;;;3.90;;
54123;SDS011;55741;53.252;5.788;2023-09-19T09:21:05;14.32;;;4.07;;
54123;SDS011;55741;53.252;5.788;2023-09-19T09:23:32;20.80;;;4.13;;
54123;SDS011;55741;53.252;5.788;2023-09-19T09:25:58;17.77;;;4.10;;
54123;SDS011;55741;53.252;5.788;2023-09-19T09:28:31;12.80;;;3.65;;
54123;SDS011;55741;53.252;5.788;2023-09-19T09:30:58;19.17;;;4.15;;
54123;SDS011;55741;53.252;5.788;2023-09-19T09:33:25;17.83;;;3.75;;
54123;SDS011;55741;53.252;5.788;2023-09-19T09:35:53;17.90;;;3.17;;
54123;SDS011;55741;53.252;5.788;2023-09-19T09:38:24;22.95;;;5.15;;
54123;SDS011;55741;53.252;5.788;2023-09-19T09:40:53;12.95;;;4.65;;
54123;SDS011;55741;53.252;5.788;2023-09-19T09:43:35;14.73;;;4.22;;
54123;SDS011;55741;53.252;5.788;2023-09-19T09:46:10;21.55;;;4.25;;
54123;SDS011;55741;53.252;5.788;2023-09-19T09:51:37;15.15;;;4.10;;
54123;SDS011;55741;53.252;5.788;2023-09-19T09:54:17;13.10;;;3.90;;
54123;SDS011;55741;53.252;5.788;2023-09-19T09:57:00;18.52;;;4.28;;
54123;SDS011;55741;53.252;5.788;2023-09-19T09:59:52;21.70;;;5.43;;
54123;SDS011;55741;53.252;5.788;2023-09-19T10:02:26;16.20;;;4.10;;
54123;SDS011;55741;53.252;5.788;2023-09-19T10:05:11;21.75;;;4.32;;
54123;SDS011;55741;53.252;5.788;2023-09-19T10:07:54;15.65;;;3.92;;
54123;SDS011;55741;53.252;5.788;2023-09-19T10:10:33;15.18;;;3.90;;
54123;SDS011;55741;53.252;5.788;2023-09-19T10:13:13;12.98;;;3.72;;
54123;SDS011;55741;53.252;5.788;2023-09-19T10:15:50;19.60;;;4.47;;
54123;SDS011;55741;53.252;5.788;2023-09-19T10:18:24;14.38;;;3.67;;
54123;SDS011;55741;53.252;5.788;2023-09-19T10:20:52;14.88;;;4.63;;
54123;SDS011;55741;53.252;5.788;2023-09-19T10:23:18;21.48;;;4.18;;
54123;SDS011;55741;53.252;5.788;2023-09-19T10:25:52;16.67;;;3.92;;
54123;SDS011;55741;53.252;5.788;2023-09-19T10:28:19;18.92;;;4.13;;
54123;SDS011;55741;53.252;5.788;2023-09-19T10:30:50;12.15;;;3.63;;
54123;SDS011;55741;53.252;5.788;2023-09-19T10:33:20;13.88;;;4.22;;
54123;SDS011;55741;53.252;5.788;2023-09-19T10:35:50;17.27;;;4.38;;
54123;SDS011;55741;53.252;5.788;2023-09-19T10:38:36;15.25;;;3.92;;
54123;SDS011;55741;53.252;5.788;2023-09-19T10:41:06;18.08;;;4.30;;
54123;SDS011;55741;53.252;5.788;2023-09-19T10:43:33;17.15;;;3.53;;
54123;SDS011;55741;53.252;5.788;2023-09-19T10:46:01;14.15;;;3.30;;
54123;SDS011;55741;53.252;5.788;2023-09-19T10:48:30;13.85;;;3.90;;
54123;SDS011;55741;53.252;5.788;2023-09-19T10:51:02;19.15;;;4.95;;
54123;SDS011;55741;53.252;5.788;2023-09-19T10:56:16;17.60;;;4.20;;
54123;SDS011;55741;53.252;5.788;2023-09-19T10:58:49;25.23;;;5.05;;
54123;SDS011;55741;53.252;5.788;2023-09-19T11:01:16;15.25;;;4.15;;
54123;SDS011;55741;53.252;5.788;2023-09-19T11:03:43;18.02;;;4.85;;
54123;SDS011;55741;53.252;5.788;2023-09-19T11:06:14;15.60;;;4.20;;
54123;SDS011;55741;53.252;5.788;2023-09-19T11:08:58;19.67;;;5.05;;
54123;SDS011;55741;53.252;5.788;2023-09-19T11:11:41;14.85;;;4.00;;
54123;SDS011;55741;53.252;5.788;2023-09-19T11:14:39;15.57;;;4.30;;
54123;SDS011;55741;53.252;5.788;2023-09-19T11:22:23;15.05;;;4.45;;
54123;SDS011;55741;53.252;5.788;2023-09-19T11:24:51;14.68;;;4.15;;
54123;SDS011;55741;53.252;5.788;2023-09-19T11:27:17;13.13;;;4.53;;
54123;SDS011;55741;53.252;5.788;2023-09-19T11:29:43;17.92;;;5.25;;
54123;SDS011;55741;53.252;5.788;2023-09-19T11:32:10;18.23;;;4.60;;
54123;SDS011;55741;53.252;5.788;2023-09-19T11:39:39;16.23;;;4.13;;
54123;SDS011;55741;53.252;5.788;2023-09-19T11:42:44;17.83;;;4.07;;
54123;SDS011;55741;53.252;5.788;2023-09-19T11:48:04;19.60;;;5.50;;
54123;SDS011;55741;53.252;5.788;2023-09-19T11:50:32;20.13;;;4.85;;
54123;SDS011;55741;53.252;5.788;2023-09-19T11:53:01;17.00;;;4.20;;
54123;SDS011;55741;53.252;5.788;2023-09-19T11:55:30;18.27;;;5.00;;
54123;SDS011;55741;53.252;5.788;2023-09-19T11:57:57;23.38;;;4.85;;
54123;SDS011;55741;53.252;5.788;2023-09-19T12:00:24;22.52;;;5.00;;
54123;SDS011;55741;53.252;5.788;2023-09-19T12:02:53;19.88;;;5.25;;
54123;SDS011;55741;53.252;5.788;2023-09-19T12:05:29;16.23;;;4.97;;
54123;SDS011;55741;53.252;5.788;2023-09-19T12:07:55;22.80;;;4.72;;
54123;SDS011;55741;53.252;5.788;2023-09-19T12:10:21;12.88;;;4.22;;
54123;SDS011;55741;53.252;5.788;2023-09-19T12:12:48;21.38;;;4.28;;
54123;SDS011;55741;53.252;5.788;2023-09-19T12:15:14;13.00;;;4.43;;
54123;SDS011;55741;53.252;5.788;2023-09-19T12:17:47;13.27;;;3.65;;
54123;SDS011;55741;53.252;5.788;2023-09-19T12:20:14;13.18;;;3.17;;
54123;SDS011;55741;53.252;5.788;2023-09-19T12:22:40;11.80;;;3.05;;
54123;SDS011;55741;53.252;5.788;2023-09-19T12:25:14;14.30;;;3.38;;
54123;SDS011;55741;53.252;5.788;2023-09-19T12:27:43;10.35;;;2.83;;
54123;SDS011;55741;53.252;5.788;2023-09-19T12:30:12;15.18;;;3.45;;
54123;SDS011;55741;53.252;5.788;2023-09-19T12:32:43;16.85;;;3.67;;
54123;SDS011;55741;53.252;5.788;2023-09-19T12:35:09;8.73;;;2.60;;
54123;SDS011;55741;53.252;5.788;2023-09-19T12:37:47;16.35;;;3.17;;
54123;SDS011;55741;53.252;5.788;2023-09-19T12:40:19;13.98;;;3.30;;
54123;SDS011;55741;53.252;5.788;2023-09-19T12:42:56;15.88;;;3.50;;
54123;SDS011;55741;53.252;5.788;2023-09-19T12:45:28;16.00;;;3.90;;
54123;SDS011;55741;53.252;5.788;2023-09-19T12:51:12;20.13;;;4.15;;
54123;SDS011;55741;53.252;5.788;2023-09-19T12:53:40;11.15;;;4.00;;
54123;SDS011;55741;53.252;5.788;2023-09-19T12:56:12;16.48;;;4.40;;
54123;SDS011;55741;53.252;5.788;2023-09-19T12:58:56;16.38;;;4.45;;
54123;SDS011;55741;53.252;5.788;2023-09-19T13:01:28;11.63;;;3.63;;
54123;SDS011;55741;53.252;5.788;2023-09-19T13:06:46;12.68;;;3.65;;
54123;SDS011;55741;53.252;5.788;2023-09-19T13:09:14;16.65;;;3.97;;
54123;SDS011;55741;53.252;5.788;2023-09-19T13:11:41;11.55;;;3.38;;
54123;SDS011;55741;53.252;5.788;2023-09-19T13:14:16;15.68;;;3.83;;
54123;SDS011;55741;53.252;5.788;2023-09-19T13:25:20;11.25;;;2.92;;
54123;SDS011;55741;53.252;5.788;2023-09-19T13:27:47;10.45;;;3.20;;
54123;SDS011;55741;53.252;5.788;2023-09-19T13:30:19;9.13;;;2.90;;
54123;SDS011;55741;53.252;5.788;2023-09-19T13:32:46;15.05;;;4.07;;
54123;SDS011;55741;53.252;5.788;2023-09-19T13:35:13;9.45;;;3.33;;
54123;SDS011;55741;53.252;5.788;2023-09-19T13:37:40;14.93;;;4.30;;
54123;SDS011;55741;53.252;5.788;2023-09-19T13:40:10;17.73;;;3.75;;
54123;SDS011;55741;53.252;5.788;2023-09-19T13:42:37;13.77;;;3.00;;
54123;SDS011;55741;53.252;5.788;2023-09-19T13:45:23;10.40;;;3.97;;
54123;SDS011;55741;53.252;5.788;2023-09-19T13:47:50;12.73;;;3.75;;
54123;SDS011;55741;53.252;5.788;2023-09-19T13:50:15;12.13;;;3.80;;
54123;SDS011;55741;53.252;5.788;2023-09-19T13:52:43;15.02;;;4.18;;
54123;SDS011;55741;53.252;5.788;2023-09-19T13:55:11;19.23;;;4.70;;
54123;SDS011;55741;53.252;5.788;2023-09-19T13:57:40;18.90;;;5.25;;
54123;SDS011;55741;53.252;5.788;2023-09-19T14:00:06;13.90;;;4.28;;
54123;SDS011;55741;53.252;5.788;2023-09-19T14:02:35;17.83;;;3.97;;
54123;SDS011;55741;53.252;5.788;2023-09-19T14:05:01;15.40;;;4.75;;
54123;SDS011;55741;53.252;5.788;2023-09-19T14:07:27;14.10;;;4.20;;
54123;SDS011;55741;53.252;5.788;2023-09-19T14:09:52;13.77;;;3.40;;
54123;SDS011;55741;53.252;5.788;2023-09-19T14:12:18;13.55;;;4.03;;
54123;SDS011;55741;53.252;5.788;2023-09-19T14:14:44;21.23;;;5.07;;
54123;SDS011;55741;53.252;5.788;2023-09-19T14:17:10;16.30;;;4.38;;
54123;SDS011;55741;53.252;5.788;2023-09-19T14:19:36;15.57;;;4.10;;
54123;SDS011;55741;53.252;5.788;2023-09-19T14:22:02;15.77;;;4.53;;
54123;SDS011;55741;53.252;5.788;2023-09-19T14:24:33;18.45;;;5.53;;
54123;SDS011;55741;53.252;5.788;2023-09-19T14:26:59;17.10;;;4.00;;
54123;SDS011;55741;53.252;5.788;2023-09-19T14:29:25;16.83;;;3.72;;
54123;SDS011;55741;53.252;5.788;2023-09-19T14:31:51;17.17;;;4.20;;
54123;SDS011;55741;53.252;5.788;2023-09-19T14:34:17;16.55;;;4.22;;
54123;SDS011;55741;53.252;5.788;2023-09-19T14:36:44;22.48;;;5.68;;
54123;SDS011;55741;53.252;5.788;2023-09-19T14:39:10;18.83;;;5.72;;
54123;SDS011;55741;53.252;5.788;2023-09-19T14:41:36;18.70;;;4.55;;
54123;SDS011;55741;53.252;5.788;2023-09-19T14:44:02;20.48;;;4.78;;
54123;SDS011;55741;53.252;5.788;2023-09-19T14:46:30;22.30;;;5.63;;
54123;SDS011;55741;53.252;5.788;2023-09-19T14:48:56;18.83;;;4.70;;
54123;SDS011;55741;53.252;5.788;2023-09-19T14:51:28;21.92;;;5.05;;
54123;SDS011;55741;53.252;5.788;2023-09-19T14:53:54;20.23;;;4.80;;
54123;SDS011;55741;53.252;5.788;2023-09-19T14:56:22;21.20;;;4.47;;
54123;SDS011;55741;53.252;5.788;2023-09-19T14:59:09;18.05;;;5.03;;
54123;SDS011;55741;53.252;5.788;2023-09-19T15:01:36;22.20;;;5.90;;
54123;SDS011;55741;53.252;5.788;2023-09-19T15:04:02;21.90;;;5.03;;
54123;SDS011;55741;53.252;5.788;2023-09-19T15:06:28;23.55;;;5.43;;
54123;SDS011;55741;53.252;5.788;2023-09-19T15:08:54;26.15;;;6.10;;
54123;SDS011;55741;53.252;5.788;2023-09-19T15:11:20;22.42;;;5.28;;
54123;SDS011;55741;53.252;5.788;2023-09-19T15:13:47;26.63;;;6.53;;
54123;SDS011;55741;53.252;5.788;2023-09-19T15:16:15;25.90;;;6.00;;
54123;SDS011;55741;53.252;5.788;2023-09-19T15:18:41;21.92;;;6.10;;
54123;SDS011;55741;53.252;5.788;2023-09-19T15:21:10;19.83;;;5.30;;
54123;SDS011;55741;53.252;5.788;2023-09-19T15:23:37;21.75;;;6.38;;
54123;SDS011;55741;53.252;5.788;2023-09-19T15:26:09;29.70;;;6.45;;
54123;SDS011;55741;53.252;5.788;2023-09-19T15:28:37;22.13;;;5.82;;
54123;SDS011;55741;53.252;5.788;2023-09-19T15:31:04;25.83;;;6.25;;
54123;SDS011;55741;53.252;5.788;2023-09-19T15:33:31;29.65;;;7.57;;
54123;SDS011;55741;53.252;5.788;2023-09-19T15:38:29;28.67;;;6.90;;
54123;SDS011;55741;53.252;5.788;2023-09-19T15:40:57;32.65;;;7.20;;
54123;SDS011;55741;53.252;5.788;2023-09-19T15:43:23;31.58;;;8.32;;
54123;SDS011;55741;53.252;5.788;2023-09-19T15:45:49;33.47;;;8.70;;
54123;SDS011;55741;53.252;5.788;2023-09-19T15:48:15;35.33;;;7.40;;
54123;SDS011;55741;53.252;5.788;2023-09-19T15:50:42;33.80;;;6.55;;
54123;SDS011;55741;53.252;5.788;2023-09-19T15:53:10;28.73;;;6.85;;